»·PEaware :: N441PW PAWG-CYXS

N441PW :: PAWG-CYXS

FLIGHT INFORMATION

Flight Status: Arrived
Operator: Privately registered:
United States
More flights under this callsign
Pilot: Stacy K. (11621)
Aircraft: CESSNA 404 TITAN
(C404)
More flights by this aircraft type
Origin: PAWG Wrangell
United States
Destination: CYXS Prince George
Canada
More flights between these airports :: More routes between these airports
Route: ANN YYD YXS
File this flight plan on PilotEdge
Remarks:
Altitude:
(Current/Filed)
15,500ft
Speed:
(Current/Filed)
180kts
Departed: 10-Apr-18 02:17 PM
Arrived: 10-Apr-18 04:12 PM
Distance/Time
Traveled:
367nm/1:55
Distance/Time
To Go:
Arrived

Flight Plot

Page will automatically refresh every two minutes.

Flight plan parsing failed; only flown route is shown


Map Options




Map Legend


Flown Route
Filed Route
Departure Airport
Arrival Airport
Navaid (VOR, NDB)
Fix

Horizontal Profiles

Position Reports

Time Latitude Longitude Heading Altitude Ground
Speed
10-Apr-18 14:02 55.037693 -131.576433 150 69ft 0kts
10-Apr-18 14:03 55.037693 -131.576433 150 69ft 0kts
10-Apr-18 14:04 55.037693 -131.576433 150 69ft 0kts
10-Apr-18 14:05 55.037693 -131.576433 150 69ft 0kts
10-Apr-18 14:06 55.037693 -131.576433 150 69ft 0kts
10-Apr-18 14:07 55.037693 -131.576433 150 69ft 0kts
10-Apr-18 14:08 55.037693 -131.576433 150 69ft 0kts
10-Apr-18 14:09 55.037693 -131.576433 150 69ft 0kts
10-Apr-18 14:10 55.037692 -131.576432 150 69ft 0kts
10-Apr-18 14:11 55.038856 -131.577025 2 69ft 12kts
10-Apr-18 14:12 55.040002 -131.576561 14 69ft 0kts
10-Apr-18 14:13 55.043049 -131.578448 329 69ft 27kts
10-Apr-18 14:14 55.050875 -131.585591 12 69ft 20kts
10-Apr-18 14:15 55.051064 -131.585963 203 69ft 8kts
10-Apr-18 14:16 55.034650 -131.571021 145 519ft 111kts
10-Apr-18 14:17 55.017368 -131.520592 88 1842ft 138kts
10-Apr-18 14:18 55.020648 -131.440508 77 3725ft 148kts
10-Apr-18 14:19 55.029350 -131.363329 84 4765ft 168kts
10-Apr-18 14:20 55.028928 -131.285582 99 5762ft 155kts
10-Apr-18 14:21 55.023785 -131.225137 102 6590ft 148kts
10-Apr-18 14:22 55.016686 -131.155296 103 7584ft 145kts
10-Apr-18 14:23 55.009211 -131.084323 104 8339ft 152kts
10-Apr-18 14:24 55.001505 -131.011628 105 9039ft 152kts
10-Apr-18 14:25 54.993842 -130.939522 106 9743ft 150kts
10-Apr-18 14:26 54.986126 -130.868040 108 10434ft 148kts
10-Apr-18 14:27 54.978568 -130.797993 109 11136ft 145kts
10-Apr-18 14:28 54.971152 -130.729357 110 11833ft 142kts
10-Apr-18 14:29 54.963832 -130.662590 111 12530ft 139kts
10-Apr-18 14:30 54.956575 -130.596778 112 13226ft 137kts
10-Apr-18 14:31 54.949535 -130.532682 113 13912ft 128kts
10-Apr-18 14:32 54.943436 -130.477052 116 14573ft 103kts
10-Apr-18 14:33 54.939010 -130.437168 123 15121ft 58kts
10-Apr-18 14:34 54.936903 -130.397369 125 14549ft 88kts
10-Apr-18 14:35 54.930804 -130.363831 124 14909ft 59kts
10-Apr-18 14:36 54.927003 -130.330689 135 14474ft 71kts
10-Apr-18 14:37 54.920999 -130.278568 116 14774ft 114kts
10-Apr-18 14:38 54.914021 -130.216709 113 15500ft 140kts
10-Apr-18 14:39 54.905657 -130.143756 112 15636ft 162kts
10-Apr-18 14:40 54.896776 -130.065636 112 15640ft 165kts
10-Apr-18 14:41 54.887730 -129.986969 111 15644ft 167kts
10-Apr-18 14:42 54.878399 -129.906512 110 15694ft 171kts
10-Apr-18 14:43 54.868905 -129.825005 110 15700ft 172kts
10-Apr-18 14:44 54.859318 -129.743234 111 15707ft 173kts
10-Apr-18 14:45 54.849637 -129.661285 111 15714ft 173kts
10-Apr-18 14:46 54.839885 -129.579198 112 15721ft 173kts
10-Apr-18 14:47 54.830105 -129.497594 111 15734ft 173kts
10-Apr-18 14:48 54.820084 -129.414313 111 15506ft 178kts
10-Apr-18 14:49 54.810097 -129.331533 111 15513ft 174kts
10-Apr-18 14:50 54.800338 -129.251305 111 15522ft 173kts
10-Apr-18 14:51 54.790255 -129.169568 111 15531ft 174kts
10-Apr-18 14:52 54.780198 -129.087386 112 15540ft 173kts
10-Apr-18 14:53 54.770002 -129.005760 112 15549ft 173kts
10-Apr-18 14:54 54.759897 -128.924204 112 15514ft 174kts
10-Apr-18 14:55 54.749640 -128.842286 112 15507ft 175kts
10-Apr-18 14:56 54.739112 -128.758955 112 15512ft 178kts
10-Apr-18 14:57 54.728502 -128.675264 112 15518ft 178kts
10-Apr-18 14:58 54.717757 -128.591234 112 15501ft 178kts
10-Apr-18 14:59 54.706959 -128.507202 112 15511ft 180kts
10-Apr-18 15:00 54.695911 -128.422284 113 15505ft 181kts
10-Apr-18 15:01 54.684819 -128.337214 112 15498ft 181kts
10-Apr-18 15:02 54.673827 -128.252307 112 15498ft 180kts
10-Apr-18 15:03 54.662710 -128.167618 113 15496ft 180kts
10-Apr-18 15:04 54.651532 -128.083121 113 15493ft 180kts
10-Apr-18 15:05 54.640285 -127.998580 113 15490ft 180kts
10-Apr-18 15:06 54.628661 -127.912033 111 15487ft 187kts
10-Apr-18 15:07 54.616821 -127.823911 111 15483ft 189kts
10-Apr-18 15:08 54.604860 -127.735634 111 15480ft 189kts
10-Apr-18 15:09 54.592841 -127.647374 111 15477ft 189kts
10-Apr-18 15:10 54.580713 -127.558878 111 15475ft 189kts
10-Apr-18 15:11 54.568552 -127.470694 112 15473ft 189kts
10-Apr-18 15:12 54.556337 -127.382533 111 15471ft 189kts
10-Apr-18 15:13 54.544178 -127.295089 111 15510ft 189kts
10-Apr-18 15:14 54.531814 -127.206980 112 15509ft 189kts
10-Apr-18 15:15 54.519357 -127.118980 112 15514ft 189kts
10-Apr-18 15:16 54.506860 -127.030909 112 15515ft 189kts
10-Apr-18 15:17 54.494278 -126.942718 112 15516ft 190kts
10-Apr-18 15:18 54.481646 -126.854646 112 15517ft 190kts
10-Apr-18 15:19 54.468941 -126.766487 112 15519ft 190kts
10-Apr-18 15:20 54.456163 -126.677846 112 15521ft 190kts
10-Apr-18 15:21 54.445077 -126.588545 110 15522ft 191kts
10-Apr-18 15:22 54.434397 -126.498527 110 15523ft 192kts
10-Apr-18 15:23 54.424105 -126.408494 110 15528ft 192kts
10-Apr-18 15:24 54.413650 -126.318684 110 15531ft 191kts
10-Apr-18 15:25 54.403143 -126.229172 111 15534ft 191kts
10-Apr-18 15:26 54.392553 -126.139667 111 15538ft 192kts
10-Apr-18 15:27 54.381866 -126.049932 111 15542ft 192kts
10-Apr-18 15:28 54.371040 -125.959904 109 15544ft 193kts
10-Apr-18 15:29 54.360069 -125.868962 109 15548ft 195kts
10-Apr-18 15:30 54.348974 -125.777629 109 15552ft 195kts
10-Apr-18 15:31 54.337810 -125.686368 109 15556ft 195kts
10-Apr-18 15:32 54.326653 -125.595783 110 15559ft 195kts
10-Apr-18 15:33 54.315300 -125.504300 110 15502ft 196kts
10-Apr-18 15:34 54.303896 -125.412899 110 15505ft 196kts
10-Apr-18 15:35 54.292426 -125.321635 110 15509ft 196kts
10-Apr-18 15:36 54.280832 -125.230054 110 15501ft 197kts
10-Apr-18 15:37 54.269153 -125.138276 110 15503ft 197kts
10-Apr-18 15:38 54.257451 -125.046971 110 15505ft 197kts
10-Apr-18 15:39 54.245641 -124.955389 111 15507ft 197kts
10-Apr-18 15:40 54.233750 -124.863784 111 15509ft 196kts
10-Apr-18 15:41 54.221816 -124.772468 111 15510ft 197kts
10-Apr-18 15:42 54.209830 -124.681335 111 15511ft 197kts
10-Apr-18 15:43 54.197712 -124.589732 111 15507ft 197kts
10-Apr-18 15:44 54.185555 -124.498432 112 15508ft 197kts
10-Apr-18 15:45 54.173358 -124.407390 112 15509ft 197kts
10-Apr-18 15:46 54.161080 -124.316334 112 15509ft 197kts
10-Apr-18 15:47 54.148759 -124.225475 112 15510ft 196kts
10-Apr-18 15:48 54.136384 -124.134801 112 15509ft 196kts
10-Apr-18 15:49 54.123897 -124.043881 112 15509ft 196kts
10-Apr-18 15:50 54.111337 -123.953219 110 15050ft 200kts
10-Apr-18 15:51 54.089843 -123.865789 121 14393ft 201kts
10-Apr-18 15:52 54.067603 -123.778194 119 13731ft 201kts
10-Apr-18 15:53 54.048876 -123.702663 118 13162ft 200kts
10-Apr-18 15:54 54.029790 -123.613590 110 12501ft 201kts
10-Apr-18 15:55 54.017331 -123.520622 108 11835ft 200kts
10-Apr-18 15:56 54.004791 -123.429560 108 11115ft 193kts
10-Apr-18 15:57 53.993491 -123.343924 108 10120ft 178kts
10-Apr-18 15:58 53.984514 -123.262447 108 9103ft 174kts
10-Apr-18 15:59 53.987160 -123.180958 71 8076ft 191kts
10-Apr-18 16:00 54.008764 -123.101007 77 7096ft 181kts
10-Apr-18 16:01 54.018204 -123.018128 88 6098ft 176kts
10-Apr-18 16:02 54.017353 -122.934631 93 5152ft 176kts
10-Apr-18 16:03 54.014329 -122.853746 99 4993ft 178kts
10-Apr-18 16:04 54.011626 -122.760655 98 5000ft 199kts
10-Apr-18 16:05 54.005481 -122.669870 98 5000ft 187kts
10-Apr-18 16:06 53.995433 -122.584009 123 4698ft 191kts
10-Apr-18 16:07 53.947391 -122.555411 170 4211ft 183kts
10-Apr-18 16:08 53.898512 -122.537025 179 4201ft 176kts
10-Apr-18 16:09 53.888615 -122.585866 279 3008ft 111kts
10-Apr-18 16:10 53.892170 -122.627607 259 2396ft 75kts
10-Apr-18 16:11 53.890278 -122.646456 264 2248ft 0kts

Navigation Log

Ident Type
Flight plan parsing failed, navigation log unavailable